sensor_id;sensor_type;location;lat;lon;timestamp;temperature;humidity
31675;DHT22;18276;45.520;11.018;2023-07-31T00:02:18;23.00;84.10
31675;DHT22;18276;45.520;11.018;2023-07-31T00:04:45;23.00;84.60
31675;DHT22;18276;45.520;11.018;2023-07-31T00:07:13;23.00;84.70
31675;DHT22;18276;45.520;11.018;2023-07-31T00:09:40;22.90;85.00
31675;DHT22;18276;45.520;11.018;2023-07-31T00:12:07;23.00;85.10
31675;DHT22;18276;45.520;11.018;2023-07-31T00:14:34;22.90;85.00
31675;DHT22;18276;45.520;11.018;2023-07-31T00:17:01;22.90;85.30
31675;DHT22;18276;45.520;11.018;2023-07-31T00:19:28;22.80;85.20
31675;DHT22;18276;45.520;11.018;2023-07-31T00:21:55;22.80;85.20
31675;DHT22;18276;45.520;11.018;2023-07-31T00:24:22;22.80;85.60
31675;DHT22;18276;45.520;11.018;2023-07-31T00:26:48;22.80;85.50
31675;DHT22;18276;45.520;11.018;2023-07-31T00:29:15;22.80;85.50
31675;DHT22;18276;45.520;11.018;2023-07-31T00:31:42;22.80;85.60
31675;DHT22;18276;45.520;11.018;2023-07-31T00:34:09;22.80;85.50
31675;DHT22;18276;45.520;11.018;2023-07-31T00:36:36;22.70;85.50
31675;DHT22;18276;45.520;11.018;2023-07-31T00:39:04;22.70;85.70
31675;DHT22;18276;45.520;11.018;2023-07-31T00:41:31;22.70;85.80
31675;DHT22;18276;45.520;11.018;2023-07-31T00:43:58;22.70;85.80
31675;DHT22;18276;45.520;11.018;2023-07-31T00:46:26;22.70;85.80
31675;DHT22;18276;45.520;11.018;2023-07-31T00:48:53;22.60;86.00
31675;DHT22;18276;45.520;11.018;2023-07-31T00:51:20;22.60;86.20
31675;DHT22;18276;45.520;11.018;2023-07-31T00:53:47;22.60;86.30
31675;DHT22;18276;45.520;11.018;2023-07-31T00:56:14;22.50;86.40
31675;DHT22;18276;45.520;11.018;2023-07-31T00:58:42;22.50;86.50
31675;DHT22;18276;45.520;11.018;2023-07-31T01:01:09;22.50;86.50
31675;DHT22;18276;45.520;11.018;2023-07-31T01:03:37;22.50;86.70
31675;DHT22;18276;45.520;11.018;2023-07-31T01:11:07;22.40;87.10
31675;DHT22;18276;45.520;11.018;2023-07-31T01:13:36;22.40;87.10
31675;DHT22;18276;45.520;11.018;2023-07-31T01:16:03;22.40;87.30
31675;DHT22;18276;45.520;11.018;2023-07-31T01:18:30;22.40;87.30
31675;DHT22;18276;45.520;11.018;2023-07-31T01:21:02;22.40;87.20
31675;DHT22;18276;45.520;11.018;2023-07-31T01:23:35;22.30;87.20
31675;DHT22;18276;45.520;11.018;2023-07-31T01:26:11;22.40;87.30
31675;DHT22;18276;45.520;11.018;2023-07-31T01:31:16;22.30;87.30
31675;DHT22;18276;45.520;11.018;2023-07-31T01:33:44;22.30;87.20
31675;DHT22;18276;45.520;11.018;2023-07-31T01:36:11;22.30;87.20
31675;DHT22;18276;45.520;11.018;2023-07-31T01:38:39;22.30;87.30
31675;DHT22;18276;45.520;11.018;2023-07-31T01:41:05;22.30;87.20
31675;DHT22;18276;45.520;11.018;2023-07-31T01:43:32;22.30;87.30
31675;DHT22;18276;45.520;11.018;2023-07-31T01:45:59;22.30;87.50
31675;DHT22;18276;45.520;11.018;2023-07-31T01:48:26;22.20;87.50
31675;DHT22;18276;45.520;11.018;2023-07-31T01:50:53;22.20;87.70
31675;DHT22;18276;45.520;11.018;2023-07-31T01:53:20;22.20;88.00
31675;DHT22;18276;45.520;11.018;2023-07-31T01:55:47;22.20;88.00
31675;DHT22;18276;45.520;11.018;2023-07-31T01:58:14;22.20;88.10
31675;DHT22;18276;45.520;11.018;2023-07-31T02:00:41;22.20;88.50
31675;DHT22;18276;45.520;11.018;2023-07-31T02:03:08;22.10;88.30
31675;DHT22;18276;45.520;11.018;2023-07-31T02:05:35;22.10;88.40
31675;DHT22;18276;45.520;11.018;2023-07-31T02:08:02;22.10;88.40
31675;DHT22;18276;45.520;11.018;2023-07-31T02:10:32;22.10;89.20
31675;DHT22;18276;45.520;11.018;2023-07-31T02:12:59;22.10;88.50
31675;DHT22;18276;45.520;11.018;2023-07-31T02:15:26;22.10;88.60
31675;DHT22;18276;45.520;11.018;2023-07-31T02:17:53;22.00;88.60
31675;DHT22;18276;45.520;11.018;2023-07-31T02:20:19;22.00;88.60
31675;DHT22;18276;45.520;11.018;2023-07-31T02:22:46;22.00;88.80
31675;DHT22;18276;45.520;11.018;2023-07-31T02:25:13;22.00;89.10
31675;DHT22;18276;45.520;11.018;2023-07-31T02:27:40;22.00;89.30
31675;DHT22;18276;45.520;11.018;2023-07-31T02:30:07;21.90;89.30
31675;DHT22;18276;45.520;11.018;2023-07-31T02:32:34;21.90;89.40
31675;DHT22;18276;45.520;11.018;2023-07-31T02:35:02;21.90;89.50
31675;DHT22;18276;45.520;11.018;2023-07-31T02:37:28;21.90;89.80
31675;DHT22;18276;45.520;11.018;2023-07-31T02:39:55;21.90;89.90
31675;DHT22;18276;45.520;11.018;2023-07-31T02:42:22;21.90;89.90
31675;DHT22;18276;45.520;11.018;2023-07-31T02:44:49;21.80;90.00
31675;DHT22;18276;45.520;11.018;2023-07-31T02:47:22;21.80;90.00
31675;DHT22;18276;45.520;11.018;2023-07-31T02:49:49;21.80;90.00
31675;DHT22;18276;45.520;11.018;2023-07-31T02:52:16;21.80;90.10
31675;DHT22;18276;45.520;11.018;2023-07-31T02:54:43;21.80;90.10
31675;DHT22;18276;45.520;11.018;2023-07-31T02:57:10;21.80;90.60
31675;DHT22;18276;45.520;11.018;2023-07-31T02:59:37;21.80;90.30
31675;DHT22;18276;45.520;11.018;2023-07-31T03:02:04;21.80;90.30
31675;DHT22;18276;45.520;11.018;2023-07-31T03:04:31;21.80;90.50
31675;DHT22;18276;45.520;11.018;2023-07-31T03:06:58;21.70;90.50
31675;DHT22;18276;45.520;11.018;2023-07-31T03:09:26;21.80;90.50
31675;DHT22;18276;45.520;11.018;2023-07-31T03:11:53;21.70;90.50
31675;DHT22;18276;45.520;11.018;2023-07-31T03:14:20;21.80;90.60
31675;DHT22;18276;45.520;11.018;2023-07-31T03:16:47;21.70;90.60
31675;DHT22;18276;45.520;11.018;2023-07-31T03:19:14;21.80;90.60
31675;DHT22;18276;45.520;11.018;2023-07-31T03:21:41;21.70;90.60
31675;DHT22;18276;45.520;11.018;2023-07-31T03:24:08;21.70;90.70
31675;DHT22;18276;45.520;11.018;2023-07-31T03:26:35;21.70;90.70
31675;DHT22;18276;45.520;11.018;2023-07-31T03:29:04;21.70;90.70
31675;DHT22;18276;45.520;11.018;2023-07-31T03:31:30;21.70;90.70
31675;DHT22;18276;45.520;11.018;2023-07-31T03:33:57;21.70;90.80
31675;DHT22;18276;45.520;11.018;2023-07-31T03:36:24;21.70;90.80
31675;DHT22;18276;45.520;11.018;2023-07-31T03:38:52;21.70;90.90
31675;DHT22;18276;45.520;11.018;2023-07-31T03:41:19;21.70;90.90
31675;DHT22;18276;45.520;11.018;2023-07-31T03:43:49;21.70;91.00
31675;DHT22;18276;45.520;11.018;2023-07-31T03:46:18;21.70;91.10
31675;DHT22;18276;45.520;11.018;2023-07-31T03:48:45;21.70;91.00
31675;DHT22;18276;45.520;11.018;2023-07-31T03:51:12;21.70;91.10
31675;DHT22;18276;45.520;11.018;2023-07-31T03:53:39;21.70;91.40
31675;DHT22;18276;45.520;11.018;2023-07-31T03:56:06;21.70;91.10
31675;DHT22;18276;45.520;11.018;2023-07-31T03:58:33;21.70;91.10
31675;DHT22;18276;45.520;11.018;2023-07-31T04:01:00;21.80;91.40
31675;DHT22;18276;45.520;11.018;2023-07-31T04:03:27;21.80;91.10
31675;DHT22;18276;45.520;11.018;2023-07-31T04:05:54;21.80;91.10
31675;DHT22;18276;45.520;11.018;2023-07-31T04:08:22;21.90;91.00
31675;DHT22;18276;45.520;11.018;2023-07-31T04:10:49;21.90;91.00
31675;DHT22;18276;45.520;11.018;2023-07-31T04:13:16;22.00;90.90
31675;DHT22;18276;45.520;11.018;2023-07-31T04:15:47;22.00;90.80
31675;DHT22;18276;45.520;11.018;2023-07-31T04:18:14;22.00;90.80
31675;DHT22;18276;45.520;11.018;2023-07-31T04:20:41;22.10;90.80
31675;DHT22;18276;45.520;11.018;2023-07-31T04:23:08;22.10;90.70
31675;DHT22;18276;45.520;11.018;2023-07-31T04:25:35;22.10;90.70
31675;DHT22;18276;45.520;11.018;2023-07-31T04:28:02;22.10;90.60
31675;DHT22;18276;45.520;11.018;2023-07-31T04:30:29;22.20;90.70
31675;DHT22;18276;45.520;11.018;2023-07-31T04:32:56;22.20;90.60
31675;DHT22;18276;45.520;11.018;2023-07-31T04:35:26;22.20;90.60
31675;DHT22;18276;45.520;11.018;2023-07-31T04:37:53;22.30;90.50
31675;DHT22;18276;45.520;11.018;2023-07-31T04:40:20;22.30;90.50
31675;DHT22;18276;45.520;11.018;2023-07-31T04:42:47;22.30;90.50
31675;DHT22;18276;45.520;11.018;2023-07-31T04:45:14;22.40;90.40
31675;DHT22;18276;45.520;11.018;2023-07-31T04:47:41;22.50;90.30
31675;DHT22;18276;45.520;11.018;2023-07-31T04:50:08;22.50;90.20
31675;DHT22;18276;45.520;11.018;2023-07-31T04:52:35;22.60;90.10
31675;DHT22;18276;45.520;11.018;2023-07-31T04:55:02;22.70;90.00
31675;DHT22;18276;45.520;11.018;2023-07-31T04:57:29;22.80;89.80
31675;DHT22;18276;45.520;11.018;2023-07-31T04:59:56;22.80;89.60
31675;DHT22;18276;45.520;11.018;2023-07-31T05:02:23;22.90;89.40
31675;DHT22;18276;45.520;11.018;2023-07-31T05:04:51;23.00;89.10
31675;DHT22;18276;45.520;11.018;2023-07-31T05:07:18;23.00;88.80
31675;DHT22;18276;45.520;11.018;2023-07-31T05:09:45;23.10;88.50
31675;DHT22;18276;45.520;11.018;2023-07-31T05:12:12;23.10;88.30
31675;DHT22;18276;45.520;11.018;2023-07-31T05:14:39;23.20;88.20
31675;DHT22;18276;45.520;11.018;2023-07-31T05:17:06;23.40;88.00
31675;DHT22;18276;45.520;11.018;2023-07-31T05:19:33;23.40;87.60
31675;DHT22;18276;45.520;11.018;2023-07-31T05:21:59;23.50;87.30
31675;DHT22;18276;45.520;11.018;2023-07-31T05:24:26;23.60;87.00
31675;DHT22;18276;45.520;11.018;2023-07-31T05:26:53;23.70;86.70
31675;DHT22;18276;45.520;11.018;2023-07-31T05:29:20;23.70;86.30
31675;DHT22;18276;45.520;11.018;2023-07-31T05:31:47;23.70;86.10
31675;DHT22;18276;45.520;11.018;2023-07-31T05:34:14;23.80;85.90
31675;DHT22;18276;45.520;11.018;2023-07-31T05:36:41;23.80;85.90
31675;DHT22;18276;45.520;11.018;2023-07-31T05:39:08;23.90;85.80
31675;DHT22;18276;45.520;11.018;2023-07-31T05:41:35;24.00;85.60
31675;DHT22;18276;45.520;11.018;2023-07-31T05:44:02;24.10;85.50
31675;DHT22;18276;45.520;11.018;2023-07-31T05:46:29;24.10;85.20
31675;DHT22;18276;45.520;11.018;2023-07-31T05:48:58;24.20;85.90
31675;DHT22;18276;45.520;11.018;2023-07-31T05:51:27;24.30;85.80
31675;DHT22;18276;45.520;11.018;2023-07-31T05:53:54;24.30;84.70
31675;DHT22;18276;45.520;11.018;2023-07-31T05:56:21;24.40;84.50
31675;DHT22;18276;45.520;11.018;2023-07-31T05:58:48;24.50;84.40
31675;DHT22;18276;45.520;11.018;2023-07-31T06:01:17;24.60;84.10
31675;DHT22;18276;45.520;11.018;2023-07-31T06:03:44;24.60;83.90
31675;DHT22;18276;45.520;11.018;2023-07-31T06:06:11;24.70;84.50
31675;DHT22;18276;45.520;11.018;2023-07-31T06:08:38;24.80;83.50
31675;DHT22;18276;45.520;11.018;2023-07-31T06:11:06;24.80;83.30
31675;DHT22;18276;45.520;11.018;2023-07-31T06:13:35;24.80;83.10
31675;DHT22;18276;45.520;11.018;2023-07-31T06:16:02;24.90;83.10
31675;DHT22;18276;45.520;11.018;2023-07-31T06:18:32;24.90;82.90
31675;DHT22;18276;45.520;11.018;2023-07-31T06:20:59;25.00;82.90
31675;DHT22;18276;45.520;11.018;2023-07-31T06:23:26;25.00;82.70
31675;DHT22;18276;45.520;11.018;2023-07-31T06:25:53;25.10;82.60
31675;DHT22;18276;45.520;11.018;2023-07-31T06:28:20;25.20;82.30
31675;DHT22;18276;45.520;11.018;2023-07-31T06:30:47;25.40;82.20
31675;DHT22;18276;45.520;11.018;2023-07-31T06:33:14;25.50;82.00
31675;DHT22;18276;45.520;11.018;2023-07-31T06:35:41;25.70;81.60
31675;DHT22;18276;45.520;11.018;2023-07-31T06:38:08;25.80;81.30
31675;DHT22;18276;45.520;11.018;2023-07-31T06:40:35;26.00;80.90
31675;DHT22;18276;45.520;11.018;2023-07-31T06:43:03;26.20;80.70
31675;DHT22;18276;45.520;11.018;2023-07-31T06:45:35;26.40;80.20
31675;DHT22;18276;45.520;11.018;2023-07-31T06:48:02;26.60;79.80
31675;DHT22;18276;45.520;11.018;2023-07-31T06:50:31;27.00;79.50
31675;DHT22;18276;45.520;11.018;2023-07-31T06:52:58;27.80;78.70
31675;DHT22;18276;45.520;11.018;2023-07-31T06:55:25;28.70;76.70
31675;DHT22;18276;45.520;11.018;2023-07-31T06:57:53;29.40;74.50
31675;DHT22;18276;45.520;11.018;2023-07-31T07:00:21;30.10;72.20
31675;DHT22;18276;45.520;11.018;2023-07-31T07:02:49;31.00;71.10
31675;DHT22;18276;45.520;11.018;2023-07-31T07:05:16;32.20;69.80
31675;DHT22;18276;45.520;11.018;2023-07-31T07:07:43;33.20;67.20
31675;DHT22;18276;45.520;11.018;2023-07-31T07:10:10;34.10;65.00
31675;DHT22;18276;45.520;11.018;2023-07-31T07:12:37;34.90;63.00
31675;DHT22;18276;45.520;11.018;2023-07-31T07:15:04;35.40;60.60
31675;DHT22;18276;45.520;11.018;2023-07-31T07:17:32;35.50;58.90
31675;DHT22;18276;45.520;11.018;2023-07-31T07:19:59;35.30;57.10
31675;DHT22;18276;45.520;11.018;2023-07-31T07:22:26;35.00;55.60
31675;DHT22;18276;45.520;11.018;2023-07-31T07:24:53;34.70;54.80
31675;DHT22;18276;45.520;11.018;2023-07-31T07:27:21;34.20;54.00
31675;DHT22;18276;45.520;11.018;2023-07-31T07:29:49;33.60;55.10
31675;DHT22;18276;45.520;11.018;2023-07-31T07:32:16;33.00;55.80
31675;DHT22;18276;45.520;11.018;2023-07-31T07:35:18;32.40;56.70
31675;DHT22;18276;45.520;11.018;2023-07-31T07:37:45;32.10;58.10
31675;DHT22;18276;45.520;11.018;2023-07-31T07:40:12;32.10;56.70
31675;DHT22;18276;45.520;11.018;2023-07-31T07:42:39;32.10;55.60
31675;DHT22;18276;45.520;11.018;2023-07-31T07:45:06;31.90;54.60
31675;DHT22;18276;45.520;11.018;2023-07-31T07:47:33;31.60;54.40
31675;DHT22;18276;45.520;11.018;2023-07-31T07:50:00;31.30;55.50
31675;DHT22;18276;45.520;11.018;2023-07-31T07:52:26;31.10;56.60
31675;DHT22;18276;45.520;11.018;2023-07-31T07:54:54;31.00;56.60
31675;DHT22;18276;45.520;11.018;2023-07-31T07:57:21;31.10;57.00
31675;DHT22;18276;45.520;11.018;2023-07-31T07:59:48;31.50;57.10
31675;DHT22;18276;45.520;11.018;2023-07-31T08:02:15;32.10;55.50
31675;DHT22;18276;45.520;11.018;2023-07-31T08:04:42;32.50;52.50
31675;DHT22;18276;45.520;11.018;2023-07-31T08:07:12;32.60;52.80
31675;DHT22;18276;45.520;11.018;2023-07-31T08:09:39;32.90;52.60
31675;DHT22;18276;45.520;11.018;2023-07-31T08:12:06;33.10;51.60
31675;DHT22;18276;45.520;11.018;2023-07-31T08:14:33;32.70;52.10
31675;DHT22;18276;45.520;11.018;2023-07-31T08:17:01;32.70;52.20
31675;DHT22;18276;45.520;11.018;2023-07-31T08:19:28;32.50;52.00
31675;DHT22;18276;45.520;11.018;2023-07-31T08:21:55;32.00;52.10
31675;DHT22;18276;45.520;11.018;2023-07-31T08:24:24;31.60;53.30
31675;DHT22;18276;45.520;11.018;2023-07-31T08:26:51;31.60;55.20
31675;DHT22;18276;45.520;11.018;2023-07-31T08:29:18;32.50;53.50
31675;DHT22;18276;45.520;11.018;2023-07-31T08:31:45;33.30;52.80
31675;DHT22;18276;45.520;11.018;2023-07-31T08:34:11;34.10;52.00
31675;DHT22;18276;45.520;11.018;2023-07-31T08:36:38;35.30;50.10
31675;DHT22;18276;45.520;11.018;2023-07-31T08:39:05;36.30;47.80
31675;DHT22;18276;45.520;11.018;2023-07-31T08:41:37;36.80;45.70
31675;DHT22;18276;45.520;11.018;2023-07-31T08:44:04;37.50;45.00
31675;DHT22;18276;45.520;11.018;2023-07-31T08:46:31;37.80;42.60
31675;DHT22;18276;45.520;11.018;2023-07-31T08:48:58;38.20;43.70
31675;DHT22;18276;45.520;11.018;2023-07-31T08:51:26;38.90;42.90
31675;DHT22;18276;45.520;11.018;2023-07-31T08:53:53;39.30;40.20
31675;DHT22;18276;45.520;11.018;2023-07-31T08:56:20;39.80;40.80
31675;DHT22;18276;45.520;11.018;2023-07-31T08:58:47;40.20;36.80
31675;DHT22;18276;45.520;11.018;2023-07-31T09:01:15;39.80;37.00
31675;DHT22;18276;45.520;11.018;2023-07-31T09:03:42;39.30;37.50
31675;DHT22;18276;45.520;11.018;2023-07-31T09:06:11;38.90;38.50
31675;DHT22;18276;45.520;11.018;2023-07-31T09:08:39;38.90;37.90
31675;DHT22;18276;45.520;11.018;2023-07-31T09:11:08;38.60;37.10
31675;DHT22;18276;45.520;11.018;2023-07-31T09:13:35;38.50;38.20
31675;DHT22;18276;45.520;11.018;2023-07-31T09:16:02;38.90;39.00
31675;DHT22;18276;45.520;11.018;2023-07-31T09:18:29;39.80;38.90
31675;DHT22;18276;45.520;11.018;2023-07-31T09:21:03;40.50;36.70
31675;DHT22;18276;45.520;11.018;2023-07-31T09:23:43;40.50;36.80
31675;DHT22;18276;45.520;11.018;2023-07-31T09:26:10;40.90;36.40
31675;DHT22;18276;45.520;11.018;2023-07-31T09:28:37;41.10;35.30
31675;DHT22;18276;45.520;11.018;2023-07-31T09:31:04;41.10;35.00
31675;DHT22;18276;45.520;11.018;2023-07-31T09:33:31;40.90;34.60
31675;DHT22;18276;45.520;11.018;2023-07-31T09:35:58;40.70;35.10
31675;DHT22;18276;45.520;11.018;2023-07-31T09:38:26;40.20;34.60
31675;DHT22;18276;45.520;11.018;2023-07-31T09:40:53;39.50;35.60
31675;DHT22;18276;45.520;11.018;2023-07-31T09:43:20;39.30;36.20
31675;DHT22;18276;45.520;11.018;2023-07-31T09:45:47;39.30;36.60
31675;DHT22;18276;45.520;11.018;2023-07-31T09:48:15;39.40;36.60
31675;DHT22;18276;45.520;11.018;2023-07-31T09:50:46;39.40;36.50
31675;DHT22;18276;45.520;11.018;2023-07-31T09:53:13;39.30;36.00
31675;DHT22;18276;45.520;11.018;2023-07-31T09:55:41;39.20;36.40
31675;DHT22;18276;45.520;11.018;2023-07-31T09:58:09;39.10;36.70
31675;DHT22;18276;45.520;11.018;2023-07-31T10:00:36;39.20;36.70
31675;DHT22;18276;45.520;11.018;2023-07-31T10:03:04;39.70;36.50
31675;DHT22;18276;45.520;11.018;2023-07-31T10:05:35;39.70;35.50
31675;DHT22;18276;45.520;11.018;2023-07-31T10:08:03;39.80;35.70
31675;DHT22;18276;45.520;11.018;2023-07-31T10:10:30;40.10;35.80
31675;DHT22;18276;45.520;11.018;2023-07-31T10:12:57;40.30;34.70
31675;DHT22;18276;45.520;11.018;2023-07-31T10:15:25;40.20;34.90
31675;DHT22;18276;45.520;11.018;2023-07-31T10:17:53;40.20;34.50
31675;DHT22;18276;45.520;11.018;2023-07-31T10:20:21;40.40;35.20
31675;DHT22;18276;45.520;11.018;2023-07-31T10:22:48;40.70;33.70
31675;DHT22;18276;45.520;11.018;2023-07-31T10:25:15;40.30;34.20
31675;DHT22;18276;45.520;11.018;2023-07-31T10:27:43;40.10;34.90
31675;DHT22;18276;45.520;11.018;2023-07-31T10:30:12;40.10;35.00
31675;DHT22;18276;45.520;11.018;2023-07-31T10:32:44;39.90;35.00
31675;DHT22;18276;45.520;11.018;2023-07-31T10:35:12;40.00;35.10
31675;DHT22;18276;45.520;11.018;2023-07-31T10:37:39;40.20;34.70
31675;DHT22;18276;45.520;11.018;2023-07-31T10:40:11;40.50;34.20
31675;DHT22;18276;45.520;11.018;2023-07-31T10:42:46;40.60;33.70
31675;DHT22;18276;45.520;11.018;2023-07-31T10:45:14;40.70;33.90
31675;DHT22;18276;45.520;11.018;2023-07-31T10:47:50;40.40;33.20
31675;DHT22;18276;45.520;11.018;2023-07-31T10:50:24;40.10;34.10
31675;DHT22;18276;45.520;11.018;2023-07-31T10:52:52;40.60;34.90
31675;DHT22;18276;45.520;11.018;2023-07-31T10:55:29;40.70;33.50
31675;DHT22;18276;45.520;11.018;2023-07-31T10:57:57;40.40;34.10
31675;DHT22;18276;45.520;11.018;2023-07-31T11:00:25;40.00;33.40
31675;DHT22;18276;45.520;11.018;2023-07-31T11:02:56;38.60;35.00
31675;DHT22;18276;45.520;11.018;2023-07-31T11:08:13;37.10;38.60
31675;DHT22;18276;45.520;11.018;2023-07-31T11:10:40;38.10;38.40
31675;DHT22;18276;45.520;11.018;2023-07-31T11:13:07;38.60;37.90
31675;DHT22;18276;45.520;11.018;2023-07-31T11:15:34;38.80;37.60
31675;DHT22;18276;45.520;11.018;2023-07-31T11:18:01;39.00;37.70
31675;DHT22;18276;45.520;11.018;2023-07-31T11:20:37;39.50;36.70
31675;DHT22;18276;45.520;11.018;2023-07-31T11:23:08;39.80;36.10
31675;DHT22;18276;45.520;11.018;2023-07-31T11:25:36;39.80;35.80
31675;DHT22;18276;45.520;11.018;2023-07-31T11:28:04;39.90;36.00
31675;DHT22;18276;45.520;11.018;2023-07-31T11:30:31;38.90;36.60
31675;DHT22;18276;45.520;11.018;2023-07-31T11:32:59;37.50;38.10
31675;DHT22;18276;45.520;11.018;2023-07-31T11:35:26;36.50;40.00
31675;DHT22;18276;45.520;11.018;2023-07-31T11:37:53;35.60;41.40
31675;DHT22;18276;45.520;11.018;2023-07-31T11:40:20;34.80;42.60
31675;DHT22;18276;45.520;11.018;2023-07-31T11:42:52;35.40;43.00
31675;DHT22;18276;45.520;11.018;2023-07-31T11:45:18;36.50;42.00
31675;DHT22;18276;45.520;11.018;2023-07-31T11:47:45;37.30;40.80
31675;DHT22;18276;45.520;11.018;2023-07-31T11:50:12;37.90;39.40
31675;DHT22;18276;45.520;11.018;2023-07-31T11:52:40;38.40;38.80
31675;DHT22;18276;45.520;11.018;2023-07-31T11:55:09;38.70;38.20
31675;DHT22;18276;45.520;11.018;2023-07-31T11:57:39;38.90;37.40
31675;DHT22;18276;45.520;11.018;2023-07-31T12:00:07;39.40;37.30
31675;DHT22;18276;45.520;11.018;2023-07-31T12:02:35;39.80;37.00
31675;DHT22;18276;45.520;11.018;2023-07-31T12:05:02;39.90;36.90
31675;DHT22;18276;45.520;11.018;2023-07-31T12:07:42;39.70;36.10
31675;DHT22;18276;45.520;11.018;2023-07-31T12:10:09;39.50;36.30
31675;DHT22;18276;45.520;11.018;2023-07-31T12:12:36;39.10;36.60
31675;DHT22;18276;45.520;11.018;2023-07-31T12:15:07;38.90;37.40
31675;DHT22;18276;45.520;11.018;2023-07-31T12:17:39;38.60;37.40
31675;DHT22;18276;45.520;11.018;2023-07-31T12:20:06;38.60;38.00
31675;DHT22;18276;45.520;11.018;2023-07-31T12:22:34;38.40;38.30
31675;DHT22;18276;45.520;11.018;2023-07-31T12:25:00;38.10;38.70
31675;DHT22;18276;45.520;11.018;2023-07-31T12:27:32;37.60;39.20
31675;DHT22;18276;45.520;11.018;2023-07-31T12:29:59;37.30;40.90
31675;DHT22;18276;45.520;11.018;2023-07-31T12:32:26;37.70;40.60
31675;DHT22;18276;45.520;11.018;2023-07-31T12:35:01;37.90;40.70
31675;DHT22;18276;45.520;11.018;2023-07-31T12:37:28;37.50;40.50
31675;DHT22;18276;45.520;11.018;2023-07-31T12:39:55;36.80;41.20
31675;DHT22;18276;45.520;11.018;2023-07-31T12:42:25;36.20;42.90
31675;DHT22;18276;45.520;11.018;2023-07-31T12:44:52;35.50;44.40
31675;DHT22;18276;45.520;11.018;2023-07-31T12:47:18;34.80;45.20
31675;DHT22;18276;45.520;11.018;2023-07-31T12:49:45;34.60;45.60
31675;DHT22;18276;45.520;11.018;2023-07-31T12:52:12;34.60;46.00
31675;DHT22;18276;45.520;11.018;2023-07-31T12:54:39;34.70;45.60
31675;DHT22;18276;45.520;11.018;2023-07-31T12:57:06;34.70;44.80
31675;DHT22;18276;45.520;11.018;2023-07-31T12:59:33;34.80;45.40
31675;DHT22;18276;45.520;11.018;2023-07-31T13:02:00;34.70;44.70
31675;DHT22;18276;45.520;11.018;2023-07-31T13:04:27;34.60;44.90
31675;DHT22;18276;45.520;11.018;2023-07-31T13:06:53;34.40;45.80
31675;DHT22;18276;45.520;11.018;2023-07-31T13:09:20;34.30;45.50
31675;DHT22;18276;45.520;11.018;2023-07-31T13:11:47;34.20;45.30
31675;DHT22;18276;45.520;11.018;2023-07-31T13:14:14;34.20;46.10
31675;DHT22;18276;45.520;11.018;2023-07-31T13:16:41;34.00;46.10
31675;DHT22;18276;45.520;11.018;2023-07-31T13:19:08;33.80;46.60
31675;DHT22;18276;45.520;11.018;2023-07-31T13:21:35;33.70;46.80
31675;DHT22;18276;45.520;11.018;2023-07-31T13:24:03;33.60;47.30
31675;DHT22;18276;45.520;11.018;2023-07-31T13:26:31;33.50;47.40
31675;DHT22;18276;45.520;11.018;2023-07-31T13:28:58;33.60;47.50
31675;DHT22;18276;45.520;11.018;2023-07-31T13:31:24;33.70;47.10
31675;DHT22;18276;45.520;11.018;2023-07-31T13:33:51;33.60;47.50
31675;DHT22;18276;45.520;11.018;2023-07-31T13:36:19;33.50;48.00
31675;DHT22;18276;45.520;11.018;2023-07-31T13:38:46;33.50;48.20
31675;DHT22;18276;45.520;11.018;2023-07-31T13:41:13;33.30;48.50
31675;DHT22;18276;45.520;11.018;2023-07-31T13:43:40;33.10;48.90
31675;DHT22;18276;45.520;11.018;2023-07-31T13:46:07;33.10;49.90
31675;DHT22;18276;45.520;11.018;2023-07-31T13:48:36;32.90;50.10
31675;DHT22;18276;45.520;11.018;2023-07-31T13:51:03;32.80;50.40
31675;DHT22;18276;45.520;11.018;2023-07-31T13:53:30;32.90;50.70
31675;DHT22;18276;45.520;11.018;2023-07-31T13:55:57;32.90;50.00
31675;DHT22;18276;45.520;11.018;2023-07-31T13:58:24;32.80;50.00
31675;DHT22;18276;45.520;11.018;2023-07-31T14:00:51;32.80;50.10
31675;DHT22;18276;45.520;11.018;2023-07-31T14:03:18;32.90;49.60
31675;DHT22;18276;45.520;11.018;2023-07-31T14:05:45;32.90;49.40
31675;DHT22;18276;45.520;11.018;2023-07-31T14:08:12;32.90;49.60
31675;DHT22;18276;45.520;11.018;2023-07-31T14:10:39;33.00;49.80
31675;DHT22;18276;45.520;11.018;2023-07-31T14:13:06;33.10;49.70
31675;DHT22;18276;45.520;11.018;2023-07-31T14:15:33;33.10;49.70
31675;DHT22;18276;45.520;11.018;2023-07-31T14:18:02;33.10;49.50
31675;DHT22;18276;45.520;11.018;2023-07-31T14:20:29;33.00;50.40
31675;DHT22;18276;45.520;11.018;2023-07-31T14:22:56;32.90;49.90
31675;DHT22;18276;45.520;11.018;2023-07-31T14:25:23;32.80;50.10
31675;DHT22;18276;45.520;11.018;2023-07-31T14:27:50;32.70;50.10
31675;DHT22;18276;45.520;11.018;2023-07-31T14:30:17;32.60;50.30
31675;DHT22;18276;45.520;11.018;2023-07-31T14:32:45;32.60;50.50
31675;DHT22;18276;45.520;11.018;2023-07-31T14:35:13;32.50;50.80
31675;DHT22;18276;45.520;11.018;2023-07-31T14:37:41;32.30;51.00
31675;DHT22;18276;45.520;11.018;2023-07-31T14:40:09;32.20;51.50
31675;DHT22;18276;45.520;11.018;2023-07-31T14:42:36;32.20;51.50
31675;DHT22;18276;45.520;11.018;2023-07-31T14:45:04;32.30;51.50
31675;DHT22;18276;45.520;11.018;2023-07-31T14:47:31;32.40;51.40
31675;DHT22;18276;45.520;11.018;2023-07-31T14:49:59;32.40;50.90
31675;DHT22;18276;45.520;11.018;2023-07-31T14:52:26;32.30;50.70
31675;DHT22;18276;45.520;11.018;2023-07-31T14:54:53;32.30;51.00
31675;DHT22;18276;45.520;11.018;2023-07-31T14:57:20;32.30;50.80
31675;DHT22;18276;45.520;11.018;2023-07-31T14:59:47;32.30;51.00
31675;DHT22;18276;45.520;11.018;2023-07-31T15:02:14;32.30;51.20
31675;DHT22;18276;45.520;11.018;2023-07-31T15:04:41;32.20;51.00
31675;DHT22;18276;45.520;11.018;2023-07-31T15:07:08;32.20;50.90
31675;DHT22;18276;45.520;11.018;2023-07-31T15:09:35;32.00;51.10
31675;DHT22;18276;45.520;11.018;2023-07-31T15:12:02;32.00;51.20
31675;DHT22;18276;45.520;11.018;2023-07-31T15:14:29;31.90;51.70
31675;DHT22;18276;45.520;11.018;2023-07-31T15:16:58;31.70;51.80
31675;DHT22;18276;45.520;11.018;2023-07-31T15:19:25;31.80;52.10
31675;DHT22;18276;45.520;11.018;2023-07-31T15:21:52;31.70;51.40
31675;DHT22;18276;45.520;11.018;2023-07-31T15:24:18;31.60;51.80
31675;DHT22;18276;45.520;11.018;2023-07-31T15:26:47;31.50;51.90
31675;DHT22;18276;45.520;11.018;2023-07-31T15:29:14;31.50;51.90